Time;durP1;ratioP1;P1;durP2;ratioP2;P2;SDS_P1;SDS_P2;PMS_P1;PMS_P2;Temp;Humidity;BMP_temperature;BMP_pressure;BME280_temperature;BME280_humidity;BME280_pressure;Samples;Min_cycle;Max_cycle;Signal;HPM_P1;HPM_P2
2021/12/01 00:01:57;;;;;;;0.97;0.97;;;7.20;50.00;;;;;;10408939;28;20237;-77
2021/12/01 00:07:00;;;;;;;1.10;1.10;;;7.20;49.80;;;;;;10394516;28;20297;-77
2021/12/01 00:12:04;;;;;;;1.00;1.00;;;7.20;49.60;;;;;;10401108;28;20236;-77
2021/12/01 00:17:12;;;;;;;1.10;1.10;;;7.30;49.40;;;;;;10393182;28;20234;-77
2021/12/01 00:22:15;;;;;;;1.00;1.00;;;7.40;49.60;;;;;;10401886;28;20325;-77
2021/12/01 00:27:19;;;;;;;1.13;1.13;;;7.40;49.30;;;;;;10402866;28;20256;-76
2021/12/01 00:32:23;;;;;;;1.13;1.13;;;7.40;49.30;;;;;;10396462;28;20237;-77
2021/12/01 00:37:27;;;;;;;1.00;1.00;;;7.50;49.30;;;;;;10395584;28;20668;-77
2021/12/01 00:42:30;;;;;;;1.00;1.00;;;7.60;49.20;;;;;;10396059;28;20229;-77
2021/12/01 00:47:42;;;;;;;1.20;1.10;;;7.60;49.10;;;;;;10400622;28;20233;-76
2021/12/01 00:52:46;;;;;;;1.00;1.00;;;7.60;48.90;;;;;;10403649;28;20238;-77
2021/12/01 00:57:51;;;;;;;0.90;0.90;;;7.70;49.10;;;;;;10398729;28;20243;-76
2021/12/01 01:02:57;;;;;;;1.00;1.00;;;7.70;49.00;;;;;;10404387;28;20258;-76
2021/12/01 01:08:00;;;;;;;1.07;1.00;;;7.70;48.90;;;;;;10404394;28;20256;-76
2021/12/01 01:18:30;;;;;;;1.00;1.00;;;7.80;48.80;;;;;;10402184;28;20225;-77
2021/12/01 01:23:34;;;;;;;1.00;1.00;;;7.80;48.80;;;;;;10399426;28;20234;-77
2021/12/01 01:28:37;;;;;;;1.00;1.00;;;7.90;48.80;;;;;;10401908;28;20316;-76
2021/12/01 01:33:42;;;;;;;1.20;1.10;;;7.90;49.40;;;;;;10402769;28;20238;-76
2021/12/01 01:38:46;;;;;;;0.90;0.90;;;7.90;48.70;;;;;;10398056;28;20245;-77
2021/12/01 01:43:51;;;;;;;0.97;0.97;;;8.00;48.70;;;;;;10400852;28;20269;-76
2021/12/01 01:49:05;;;;;;;1.00;1.00;;;8.00;48.60;;;;;;10394305;28;20715;-76
2021/12/01 01:54:08;;;;;;;1.00;1.00;;;8.10;48.70;;;;;;10405985;28;20229;-76
2021/12/01 01:59:11;;;;;;;1.10;1.10;;;8.10;48.60;;;;;;10405217;28;20240;-77
2021/12/01 02:04:18;;;;;;;1.30;1.20;;;8.10;48.50;;;;;;10403568;28;20226;-76
2021/12/01 02:09:23;;;;;;;1.53;1.10;;;8.20;48.40;;;;;;10400712;28;20235;-76
2021/12/01 02:14:28;;;;;;;1.13;1.13;;;8.20;48.30;;;;;;10401240;28;20275;-76
2021/12/01 02:19:38;;;;;;;1.10;1.10;;;8.20;48.70;;;;;;10400279;28;20238;-76
2021/12/01 02:24:46;;;;;;;1.10;1.10;;;8.20;48.10;;;;;;10401710;28;20241;-76
2021/12/01 02:29:51;;;;;;;1.00;1.00;;;8.20;48.20;;;;;;10393754;28;20236;-77
2021/12/01 02:34:54;;;;;;;1.07;1.07;;;8.30;48.30;;;;;;10401448;28;20753;-77
2021/12/01 02:39:58;;;;;;;1.10;1.10;;;8.40;48.30;;;;;;10401410;28;20226;-76
2021/12/01 02:45:02;;;;;;;1.10;1.10;;;8.40;48.10;;;;;;10402114;28;20241;-77
2021/12/01 02:50:06;;;;;;;0.83;0.83;;;8.40;48.10;;;;;;10404731;28;20229;-77
2021/12/01 02:55:15;;;;;;;0.80;0.80;;;8.40;48.00;;;;;;10401620;28;20605;-76
2021/12/01 03:00:21;;;;;;;1.10;1.00;;;8.50;47.90;;;;;;10403416;28;20783;-76
2021/12/01 03:05:24;;;;;;;1.20;1.10;;;8.50;47.90;;;;;;10408367;28;20599;-76
2021/12/01 03:10:29;;;;;;;1.00;1.00;;;8.60;48.00;;;;;;10400592;28;20232;-76
2021/12/01 03:15:33;;;;;;;1.00;1.00;;;8.60;47.90;;;;;;10399321;28;20237;-76
2021/12/01 03:20:36;;;;;;;0.90;0.90;;;8.60;47.90;;;;;;10390048;28;20233;-76
2021/12/01 03:25:41;;;;;;;0.90;0.90;;;8.60;47.90;;;;;;10401830;28;20241;-76
2021/12/01 03:30:45;;;;;;;0.90;0.90;;;8.60;47.80;;;;;;10397612;28;20240;-76
2021/12/01 03:35:50;;;;;;;0.90;0.90;;;8.60;47.90;;;;;;10392820;28;20237;-76
2021/12/01 03:40:55;;;;;;;0.90;0.90;;;8.60;47.80;;;;;;10393962;28;20324;-76
2021/12/01 03:45:58;;;;;;;1.00;1.00;;;8.60;47.90;;;;;;10402382;28;20240;-76
2021/12/01 03:51:02;;;;;;;1.10;1.10;;;8.60;47.90;;;;;;10400615;28;20222;-77
2021/12/01 03:56:07;;;;;;;0.93;0.93;;;8.60;47.90;;;;;;10392540;28;20321;-76
2021/12/01 04:01:11;;;;;;;0.83;0.83;;;8.70;47.90;;;;;;10393056;28;20249;-77
2021/12/01 04:06:15;;;;;;;0.90;0.90;;;8.70;48.10;;;;;;10406097;28;20646;-77
2021/12/01 04:11:19;;;;;;;1.03;1.03;;;8.70;48.00;;;;;;10397878;28;20241;-77
2021/12/01 04:16:23;;;;;;;1.27;0.97;;;8.70;48.10;;;;;;10396096;28;20244;-78
2021/12/01 04:21:27;;;;;;;1.00;1.00;;;8.70;48.10;;;;;;10382722;28;20260;-77
2021/12/01 04:26:33;;;;;;;1.07;1.07;;;8.70;48.10;;;;;;10399206;28;20230;-77
2021/12/01 04:31:38;;;;;;;1.30;1.20;;;8.70;48.20;;;;;;10405268;28;20320;-77
2021/12/01 04:36:42;;;;;;;1.43;1.30;;;8.70;48.30;;;;;;10390916;28;20253;-77
2021/12/01 04:41:52;;;;;;;1.23;1.13;;;8.60;48.30;;;;;;10397386;28;20758;-77
2021/12/01 04:46:56;;;;;;;1.43;1.33;;;8.60;48.20;;;;;;10392018;28;20738;-77
2021/12/01 04:52:01;;;;;;;1.10;1.10;;;8.60;48.30;;;;;;10386048;28;20267;-77
2021/12/01 04:57:07;;;;;;;1.50;1.40;;;8.60;48.40;;;;;;10401685;28;20225;-77
2021/12/01 05:02:10;;;;;;;1.60;1.50;;;8.60;48.30;;;;;;10405181;28;20588;-76
2021/12/01 05:07:14;;;;;;;1.20;1.17;;;8.60;48.30;;;;;;10408588;28;20617;-77
2021/12/01 05:12:19;;;;;;;1.33;1.30;;;8.60;48.30;;;;;;10393988;28;20234;-76
2021/12/01 05:17:22;;;;;;;1.13;1.13;;;8.70;48.30;;;;;;10392913;28;20238;-77
2021/12/01 05:22:26;;;;;;;1.07;1.07;;;8.70;48.30;;;;;;10397268;28;20229;-78
2021/12/01 05:27:31;;;;;;;1.20;1.20;;;8.70;48.30;;;;;;10401135;28;20257;-77
2021/12/01 05:32:35;;;;;;;1.30;1.20;;;8.80;48.20;;;;;;10403676;28;20772;-76
2021/12/01 05:37:39;;;;;;;1.40;1.10;;;8.80;48.20;;;;;;10390691;28;20242;-76
2021/12/01 05:42:43;;;;;;;1.20;1.20;;;8.80;48.10;;;;;;10397458;28;20240;-76
2021/12/01 05:47:46;;;;;;;1.30;1.20;;;8.90;48.20;;;;;;10397904;28;20242;-77
2021/12/01 05:52:49;;;;;;;1.20;1.20;;;8.80;48.30;;;;;;10384616;28;20237;-77
2021/12/01 05:57:54;;;;;;;1.00;1.00;;;8.90;48.30;;;;;;10376844;28;20246;-76
2021/12/01 06:03:00;;;;;;;1.30;1.20;;;8.90;48.30;;;;;;10404994;28;20606;-78
2021/12/01 06:08:06;;;;;;;1.97;1.10;;;8.90;48.30;;;;;;10390930;28;20276;-76
2021/12/01 06:13:10;;;;;;;1.40;1.30;;;8.90;48.40;;;;;;10411636;28;20244;-76
2021/12/01 06:18:14;;;;;;;1.00;1.00;;;8.80;48.40;;;;;;10410079;28;20240;-77
2021/12/01 06:23:17;;;;;;;2.37;2.17;;;8.80;48.40;;;;;;10408687;28;20598;-75
2021/12/01 06:28:22;;;;;;;3.37;3.07;;;8.80;48.50;;;;;;10409190;28;20225;-75
2021/12/01 06:33:26;;;;;;;1.97;1.87;;;8.80;48.70;;;;;;10410905;28;20230;-75
2021/12/01 06:38:29;;;;;;;2.30;1.90;;;8.80;48.50;;;;;;10410059;28;20720;-75
2021/12/01 06:43:34;;;;;;;3.20;2.23;;;8.80;48.50;;;;;;10410139;28;20621;-75
2021/12/01 06:48:37;;;;;;;2.20;2.10;;;8.80;48.60;;;;;;10409985;28;20235;-75
2021/12/01 06:53:40;;;;;;;1.73;1.63;;;8.80;48.60;;;;;;10410020;28;20238;-75
2021/12/01 06:58:45;;;;;;;1.80;1.70;;;8.90;48.40;;;;;;10409534;28;20233;-75
2021/12/01 07:03:48;;;;;;;1.57;1.47;;;8.80;48.40;;;;;;10409533;28;20236;-75
2021/12/01 07:08:52;;;;;;;1.53;1.43;;;8.80;48.40;;;;;;10409231;28;20229;-75
2021/12/01 07:13:57;;;;;;;1.80;1.70;;;8.80;48.40;;;;;;10408150;28;20245;-75
2021/12/01 07:19:00;;;;;;;2.00;1.80;;;8.80;48.60;;;;;;10407876;28;20233;-76
2021/12/01 07:24:03;;;;;;;2.00;1.80;;;8.80;48.50;;;;;;10408136;28;20233;-75
2021/12/01 07:29:08;;;;;;;1.60;1.50;;;8.90;48.50;;;;;;10408498;28;20235;-75
2021/12/01 07:34:11;;;;;;;2.17;1.77;;;8.90;48.40;;;;;;10408529;28;20281;-75
2021/12/01 07:39:16;;;;;;;1.80;1.70;;;8.90;48.30;;;;;;10436592;23;20225;-69
2021/12/01 07:44:20;;;;;;;1.70;1.60;;;8.90;48.00;;;;;;10430011;28;20221;-67
2021/12/01 07:49:24;;;;;;;1.43;1.40;;;9.00;48.50;;;;;;10410648;23;20615;-76
2021/12/01 07:54:27;;;;;;;1.70;1.60;;;9.00;48.00;;;;;;10309676;28;20576;-76
2021/12/01 07:59:32;;;;;;;2.10;1.90;;;9.00;47.90;;;;;;10285458;28;20607;-76
2021/12/01 08:04:35;;;;;;;2.67;1.90;;;9.00;47.80;;;;;;10281181;28;20232;-76
2021/12/01 08:09:38;;;;;;;1.80;1.70;;;9.00;47.90;;;;;;10278678;28;20250;-76
2021/12/01 08:14:43;;;;;;;1.50;1.40;;;8.90;47.90;;;;;;10279200;28;20909;-76
2021/12/01 08:19:46;;;;;;;1.60;1.50;;;8.90;47.90;;;;;;10278885;28;20331;-76
2021/12/01 08:24:49;;;;;;;1.30;1.20;;;8.90;48.00;;;;;;10280316;28;20234;-76
2021/12/01 08:29:54;;;;;;;2.33;1.10;;;9.00;48.00;;;;;;10280178;28;20741;-76
2021/12/01 08:34:57;;;;;;;1.00;1.00;;;9.00;47.90;;;;;;10278885;28;20254;-76
2021/12/01 08:40:00;;;;;;;1.00;1.00;;;9.00;47.70;;;;;;10279819;28;20227;-76
2021/12/01 08:45:05;;;;;;;1.00;1.00;;;9.10;47.80;;;;;;10279469;28;20234;-76
2021/12/01 08:50:10;;;;;;;0.90;0.90;;;9.20;47.40;;;;;;10278886;28;20237;-75
2021/12/01 08:55:14;;;;;;;0.97;0.97;;;9.30;47.50;;;;;;10279792;28;20242;-75
2021/12/01 09:00:41;;;;;;;1.23;1.20;;;9.40;47.70;;;;;;10278131;28;20250;-76
2021/12/01 09:05:47;;;;;;;1.00;1.00;;;9.50;47.00;;;;;;10280135;28;20243;-76
2021/12/01 09:10:52;;;;;;;2.00;1.10;;;9.60;47.00;;;;;;10276197;28;20958;-76
2021/12/01 09:15:57;;;;;;;1.13;1.07;;;9.60;46.60;;;;;;10277509;28;20235;-76
2021/12/01 09:21:02;;;;;;;1.17;1.00;;;9.70;46.60;;;;;;10280639;28;20236;-76
2021/12/01 09:26:05;;;;;;;0.90;0.90;;;9.70;46.60;;;;;;10276928;28;20243;-76
2021/12/01 09:31:10;;;;;;;1.03;1.00;;;9.80;46.60;;;;;;10278437;28;20231;-76
2021/12/01 09:36:13;;;;;;;1.10;1.00;;;9.80;46.60;;;;;;10279794;28;20306;-76
2021/12/01 09:41:17;;;;;;;1.67;0.83;;;9.80;47.40;;;;;;10282299;28;20223;-76
2021/12/01 09:46:22;;;;;;;1.07;1.07;;;9.80;46.60;;;;;;10286599;28;20239;-76
2021/12/01 09:51:25;;;;;;;1.37;1.27;;;9.90;46.50;;;;;;10288788;28;20227;-76
2021/12/01 09:56:29;;;;;;;0.80;0.80;;;9.90;46.70;;;;;;10288035;28;20787;-76
2021/12/01 10:01:34;;;;;;;1.40;0.90;;;10.00;45.60;;;;;;10292991;28;20249;-76
2021/12/01 10:06:41;;;;;;;0.93;0.93;;;10.00;45.00;;;;;;10286765;28;20843;-76
2021/12/01 10:11:44;;;;;;;0.90;0.90;;;10.10;45.50;;;;;;10295054;28;20228;-76
2021/12/01 10:16:54;;;;;;;1.00;1.00;;;10.10;45.20;;;;;;10292869;28;20243;-76
2021/12/01 10:21:59;;;;;;;0.97;0.90;;;10.10;44.40;;;;;;10288841;28;20236;-76
2021/12/01 10:27:04;;;;;;;0.80;0.80;;;10.20;45.30;;;;;;10286403;28;20232;-76
2021/12/01 10:32:17;;;;;;;0.80;0.80;;;10.30;45.30;;;;;;10286615;28;20250;-76
2021/12/01 10:37:25;;;;;;;0.80;0.80;;;10.40;44.50;;;;;;10286523;28;20232;-76
2021/12/01 10:42:28;;;;;;;0.90;0.90;;;10.60;45.20;;;;;;10282672;28;20372;-76
2021/12/01 10:47:40;;;;;;;1.90;0.70;;;10.70;45.20;;;;;;10287325;28;20571;-76
2021/12/01 10:52:45;;;;;;;0.77;0.77;;;10.90;44.40;;;;;;10282255;28;20271;-76
2021/12/01 10:57:54;;;;;;;1.00;1.00;;;11.00;45.00;;;;;;10282936;28;20690;-76
2021/12/01 11:03:07;;;;;;;0.90;0.90;;;11.10;44.60;;;;;;10283109;28;20260;-76
2021/12/01 11:08:13;;;;;;;0.60;0.60;;;11.10;43.40;;;;;;10281248;28;20241;-76
2021/12/01 11:13:17;;;;;;;0.83;0.83;;;11.20;44.40;;;;;;10284938;28;20253;-76
2021/12/01 11:18:25;;;;;;;0.77;0.77;;;11.30;44.40;;;;;;10286653;28;20236;-76
2021/12/01 11:23:43;;;;;;;0.70;0.70;;;11.30;44.00;;;;;;10279457;28;20236;-76
2021/12/01 11:28:48;;;;;;;0.80;0.80;;;11.40;44.00;;;;;;10287255;28;20367;-76
2021/12/01 11:33:55;;;;;;;0.80;0.80;;;11.50;44.10;;;;;;10283793;28;20249;-76
2021/12/01 11:39:00;;;;;;;0.63;0.63;;;11.60;43.90;;;;;;10284914;28;20231;-76
2021/12/01 11:44:05;;;;;;;0.70;0.70;;;11.60;43.50;;;;;;10280181;28;20252;-76
2021/12/01 11:49:11;;;;;;;0.93;0.80;;;11.60;43.80;;;;;;10295117;28;20266;-76
2021/12/01 11:54:19;;;;;;;0.80;0.80;;;11.70;43.20;;;;;;10319667;28;20262;-76
2021/12/01 11:59:24;;;;;;;0.80;0.80;;;11.70;43.40;;;;;;10314736;28;20347;-76
2021/12/01 12:04:43;;;;;;;0.80;0.80;;;11.70;43.40;;;;;;10320512;28;20227;-79
2021/12/01 12:10:12;;;;;;;0.90;0.90;;;11.70;42.70;;;;;;10324260;28;20241;-77
2021/12/01 12:15:35;;;;;;;0.80;0.80;;;11.70;42.90;;;;;;10323110;28;20234;-81
2021/12/01 12:20:50;;;;;;;0.80;0.80;;;11.70;42.80;;;;;;10322362;28;20243;-79
2021/12/01 12:25:56;;;;;;;1.70;0.80;;;11.70;43.20;;;;;;10317460;28;20234;-79
2021/12/01 12:31:27;;;;;;;0.80;0.80;;;11.70;43.60;;;;;;10314358;28;20281;-79
2021/12/01 12:36:45;;;;;;;0.70;0.70;;;11.70;42.50;;;;;;10320849;28;20320;-79
2021/12/01 12:42:09;;;;;;;1.10;1.03;;;11.80;43.00;;;;;;10318580;28;20749;-79
2021/12/01 12:47:14;;;;;;;1.40;1.30;;;11.80;42.80;;;;;;10319393;28;20309;-79
2021/12/01 12:52:36;;;;;;;1.30;1.20;;;11.80;43.30;;;;;;10281339;28;20241;-79
2021/12/01 12:57:58;;;;;;;1.60;1.37;;;11.90;42.90;;;;;;10279813;28;20247;-79
2021/12/01 13:03:29;;;;;;;1.30;1.20;;;11.90;42.30;;;;;;10279150;28;20250;-76
2021/12/01 13:08:36;;;;;;;1.70;1.40;;;12.00;42.80;;;;;;10285415;28;20632;-79
2021/12/01 13:13:42;;;;;;;1.40;1.30;;;12.00;42.80;;;;;;10277404;28;20236;-77
2021/12/01 13:18:47;;;;;;;1.40;1.30;;;12.00;42.90;;;;;;10289157;28;20679;-80
2021/12/01 13:23:54;;;;;;;1.60;1.50;;;12.00;43.00;;;;;;10289568;28;20234;-78
2021/12/01 13:29:01;;;;;;;1.40;1.30;;;12.00;42.70;;;;;;10282922;28;20629;-78
2021/12/01 13:34:07;;;;;;;1.37;1.27;;;12.00;43.10;;;;;;10287377;28;20257;-79
2021/12/01 13:39:14;;;;;;;1.73;1.63;;;12.00;43.10;;;;;;10288311;28;20241;-79
2021/12/01 13:44:20;;;;;;;1.43;1.03;;;12.00;42.70;;;;;;10284992;28;20286;-80
2021/12/01 13:49:35;;;;;;;1.23;1.20;;;12.00;42.80;;;;;;10305078;28;20234;-79
2021/12/01 13:54:39;;;;;;;4.33;3.63;;;12.00;43.10;;;;;;10323491;28;20226;-79
2021/12/01 13:59:46;;;;;;;4.20;3.73;;;12.10;42.90;;;;;;10329208;28;20235;-80
2021/12/01 14:04:50;;;;;;;3.37;2.60;;;12.10;43.00;;;;;;10333576;28;20246;-80
2021/12/01 14:10:01;;;;;;;1.40;1.30;;;12.10;43.10;;;;;;10324496;28;20258;-75
2021/12/01 14:15:05;;;;;;;2.23;1.50;;;12.10;42.00;;;;;;10325708;28;20704;-75
2021/12/01 14:20:19;;;;;;;1.43;1.33;;;12.20;43.10;;;;;;10326805;28;20227;-75
2021/12/01 14:25:24;;;;;;;1.97;1.87;;;12.20;43.10;;;;;;10322938;28;20245;-75
2021/12/01 14:30:27;;;;;;;2.47;2.27;;;12.20;42.60;;;;;;10329648;28;20725;-75
2021/12/01 14:35:30;;;;;;;1.80;1.70;;;12.20;42.90;;;;;;10333942;28;20244;-76
2021/12/01 14:40:42;;;;;;;1.40;1.30;;;12.30;43.10;;;;;;10324520;28;20239;-75
2021/12/01 14:45:46;;;;;;;1.40;1.30;;;12.30;42.00;;;;;;10324751;28;20239;-75
2021/12/01 14:50:54;;;;;;;1.23;1.17;;;12.40;42.80;;;;;;10329064;28;20712;-75
2021/12/01 14:55:58;;;;;;;1.03;1.03;;;12.40;42.40;;;;;;10325907;28;20239;-75
2021/12/01 15:01:06;;;;;;;1.17;1.07;;;12.40;42.70;;;;;;10328505;28;20219;-76
2021/12/01 15:06:10;;;;;;;1.00;0.90;;;12.40;42.00;;;;;;10325481;28;20239;-75
2021/12/01 15:11:22;;;;;;;0.80;0.80;;;12.50;42.20;;;;;;10320631;28;20235;-76
2021/12/01 15:16:27;;;;;;;0.90;0.90;;;12.50;42.10;;;;;;10324824;28;20377;-75
2021/12/01 15:21:46;;;;;;;0.80;0.80;;;12.60;42.20;;;;;;10329674;28;20234;-75
2021/12/01 15:26:53;;;;;;;1.00;1.00;;;12.60;42.20;;;;;;10326207;28;20249;-77
2021/12/01 15:32:00;;;;;;;0.90;0.90;;;12.60;42.20;;;;;;10330964;28;20238;-76
2021/12/01 15:37:04;;;;;;;0.90;0.90;;;12.70;42.20;;;;;;10324014;28;20238;-75
2021/12/01 15:42:11;;;;;;;1.13;1.10;;;12.70;42.30;;;;;;10317157;28;20715;-76
2021/12/01 15:47:14;;;;;;;0.80;0.80;;;12.70;42.00;;;;;;10326694;28;20648;-76
2021/12/01 15:52:19;;;;;;;1.03;0.90;;;12.70;42.30;;;;;;10327145;28;20242;-76
2021/12/01 15:57:26;;;;;;;0.70;0.70;;;12.70;42.20;;;;;;10332606;28;20743;-76
2021/12/01 16:02:29;;;;;;;0.90;0.90;;;12.60;42.20;;;;;;10325791;28;20240;-76
2021/12/01 16:07:32;;;;;;;0.67;0.67;;;12.60;42.20;;;;;;10333153;28;20290;-75
2021/12/01 16:12:37;;;;;;;2.07;1.60;;;12.50;42.10;;;;;;10340235;28;20235;-75
2021/12/01 16:17:41;;;;;;;1.17;1.10;;;12.50;42.10;;;;;;10327631;28;20638;-75
2021/12/01 16:22:46;;;;;;;1.60;1.50;;;12.50;42.10;;;;;;10329440;28;20235;-76
2021/12/01 16:27:51;;;;;;;1.13;1.10;;;12.40;42.00;;;;;;10329344;28;20720;-76
2021/12/01 16:32:57;;;;;;;1.10;1.10;;;12.40;42.00;;;;;;10333481;28;20235;-76
2021/12/01 16:38:05;;;;;;;1.00;1.00;;;12.40;42.00;;;;;;10314999;28;20238;-76
2021/12/01 16:43:12;;;;;;;1.00;0.90;;;12.40;42.00;;;;;;10320467;28;20230;-76
2021/12/01 16:48:17;;;;;;;1.10;1.00;;;12.40;42.00;;;;;;10341175;28;20235;-76
2021/12/01 16:53:21;;;;;;;0.90;0.90;;;12.40;42.10;;;;;;10296760;28;20259;-76
2021/12/01 16:58:26;;;;;;;0.70;0.70;;;12.40;42.00;;;;;;10296400;28;20741;-76
2021/12/01 17:03:32;;;;;;;1.13;0.70;;;12.40;41.70;;;;;;10287053;28;20230;-76
2021/12/01 17:08:40;;;;;;;0.93;0.80;;;12.40;41.60;;;;;;10293672;28;20741;-76
2021/12/01 17:13:45;;;;;;;2.43;0.97;;;12.40;41.80;;;;;;10291322;28;20243;-75
2021/12/01 17:18:48;;;;;;;0.80;0.80;;;12.40;42.20;;;;;;10295632;28;20792;-76
2021/12/01 17:23:52;;;;;;;0.80;0.80;;;12.40;41.90;;;;;;10294886;28;20290;-75
2021/12/01 17:28:56;;;;;;;0.97;0.97;;;12.40;41.70;;;;;;10294490;28;20270;-74
2021/12/01 17:33:59;;;;;;;0.97;0.97;;;12.40;40.90;;;;;;10294001;28;20657;-74
2021/12/01 17:39:03;;;;;;;1.67;1.03;;;12.40;41.50;;;;;;10293531;28;20751;-74
2021/12/01 17:44:08;;;;;;;0.90;0.90;;;12.40;41.30;;;;;;10294072;28;20593;-74
2021/12/01 17:49:11;;;;;;;0.90;0.90;;;12.40;41.10;;;;;;10305332;28;20253;-74
2021/12/01 17:54:14;;;;;;;1.20;1.00;;;12.40;41.50;;;;;;10333751;28;20245;-74
2021/12/01 17:59:19;;;;;;;1.10;1.00;;;12.40;42.10;;;;;;10331098;28;20238;-73
2021/12/01 18:04:23;;;;;;;0.80;0.80;;;12.30;41.10;;;;;;10328662;28;20231;-74
2021/12/01 18:09:26;;;;;;;1.10;1.10;;;12.30;41.10;;;;;;10328280;28;20272;-74
2021/12/01 18:14:31;;;;;;;0.90;0.90;;;12.30;41.60;;;;;;10327186;28;20241;-74
2021/12/01 18:19:35;;;;;;;1.20;1.10;;;12.30;41.10;;;;;;10327231;28;20274;-74
2021/12/01 18:24:40;;;;;;;1.47;1.37;;;12.20;41.50;;;;;;10304764;28;20553;-75
2021/12/01 18:29:46;;;;;;;1.00;1.00;;;12.20;41.70;;;;;;10284033;28;20232;-76
2021/12/01 18:34:50;;;;;;;1.37;1.20;;;12.20;41.30;;;;;;10277664;28;20655;-76
2021/12/01 18:39:53;;;;;;;1.23;1.10;;;12.20;41.60;;;;;;10286076;28;20245;-77
2021/12/01 18:44:57;;;;;;;1.20;1.20;;;12.10;41.40;;;;;;10283297;28;20228;-78
2021/12/01 18:50:01;;;;;;;1.83;1.70;;;12.10;41.40;;;;;;10296609;28;20243;-77
2021/12/01 18:55:05;;;;;;;1.90;1.80;;;12.00;41.60;;;;;;10319946;28;20768;-77
2021/12/01 19:00:31;;;;;;;2.27;2.17;;;12.00;41.70;;;;;;10315154;28;20249;-77
2021/12/01 19:05:39;;;;;;;1.30;1.20;;;12.00;41.50;;;;;;10318735;28;20239;-77
2021/12/01 19:10:42;;;;;;;1.50;1.40;;;12.00;41.70;;;;;;10317382;28;20326;-77
2021/12/01 19:15:47;;;;;;;0.87;0.87;;;12.00;41.70;;;;;;10324320;28;20754;-77
2021/12/01 19:20:50;;;;;;;1.80;0.90;;;12.00;41.70;;;;;;10321147;28;20250;-77
2021/12/01 19:25:54;;;;;;;1.47;1.10;;;11.90;41.60;;;;;;10324797;28;20233;-77
2021/12/01 19:30:59;;;;;;;1.50;1.40;;;11.90;41.60;;;;;;10314086;28;20233;-77
2021/12/01 19:36:02;;;;;;;1.20;1.20;;;11.90;41.70;;;;;;10325392;28;20238;-77
2021/12/01 19:41:07;;;;;;;1.90;1.80;;;11.90;41.70;;;;;;10321825;28;20756;-77
2021/12/01 19:46:12;;;;;;;1.80;1.70;;;11.80;41.50;;;;;;10312383;28;20590;-77
2021/12/01 19:51:17;;;;;;;2.10;2.00;;;11.80;41.50;;;;;;10285710;28;20230;-77
2021/12/01 19:56:21;;;;;;;1.23;1.20;;;11.80;41.60;;;;;;10281346;28;20261;-78
2021/12/01 20:01:26;;;;;;;1.00;1.00;;;11.80;41.50;;;;;;10282164;28;20228;-79
2021/12/01 20:06:30;;;;;;;1.00;1.00;;;11.80;41.50;;;;;;10279512;28;20294;-75
2021/12/01 20:11:39;;;;;;;1.00;1.00;;;11.80;41.50;;;;;;10274142;28;20243;-77
2021/12/01 20:16:44;;;;;;;1.17;1.00;;;11.80;42.20;;;;;;10273437;28;20235;-76
2021/12/01 20:21:47;;;;;;;1.30;1.20;;;11.70;41.40;;;;;;10274081;28;20726;-77
2021/12/01 20:26:52;;;;;;;1.17;1.07;;;11.70;41.40;;;;;;10275424;28;20314;-77
2021/12/01 20:31:58;;;;;;;0.90;0.90;;;11.70;41.40;;;;;;10277092;28;20227;-77
2021/12/01 20:37:02;;;;;;;1.03;1.00;;;11.70;41.40;;;;;;10276528;28;20235;-77
2021/12/01 20:42:08;;;;;;;1.17;1.10;;;11.70;41.40;;;;;;10274840;28;20226;-76
2021/12/01 20:47:39;;;;;;;1.00;1.00;;;11.70;41.40;;;;;;10277040;28;20227;-77
2021/12/01 20:58:10;;;;;;;0.90;0.90;;;11.70;41.50;;;;;;10277001;28;20227;-77
2021/12/01 21:03:17;;;;;;;0.97;0.97;;;11.60;41.30;;;;;;10277731;28;20223;-77
2021/12/01 21:08:24;;;;;;;1.00;1.00;;;11.70;41.50;;;;;;10275591;28;20659;-76
2021/12/01 21:13:29;;;;;;;0.90;0.90;;;11.70;41.40;;;;;;10277995;28;20241;-76
2021/12/01 21:18:34;;;;;;;1.00;1.00;;;11.60;41.30;;;;;;10277601;28;20294;-76
2021/12/01 21:23:39;;;;;;;1.17;1.17;;;11.60;41.30;;;;;;10278068;28;20231;-77
2021/12/01 21:28:43;;;;;;;1.30;1.20;;;11.60;41.80;;;;;;10277532;28;20257;-77
2021/12/01 21:33:50;;;;;;;2.27;1.10;;;11.50;41.30;;;;;;10278626;28;20234;-76
2021/12/01 21:38:55;;;;;;;1.13;1.10;;;11.50;41.30;;;;;;10283536;28;20334;-76
2021/12/01 21:43:58;;;;;;;0.83;0.83;;;11.50;41.50;;;;;;10282258;28;21054;-77
2021/12/01 21:49:03;;;;;;;1.03;0.90;;;11.50;41.50;;;;;;10282506;28;20232;-75
2021/12/01 21:54:07;;;;;;;1.23;1.13;;;11.40;41.40;;;;;;10279259;28;20228;-74
2021/12/01 21:59:11;;;;;;;1.23;1.00;;;11.30;41.30;;;;;;10281815;28;20599;-74
2021/12/01 22:04:18;;;;;;;0.93;0.93;;;11.30;41.30;;;;;;10280367;28;20227;-75
2021/12/01 22:09:23;;;;;;;0.80;0.80;;;11.30;41.50;;;;;;10282309;28;21050;-79
2021/12/01 22:14:30;;;;;;;0.80;0.80;;;11.20;41.40;;;;;;10281712;28;20242;-77
2021/12/01 22:19:34;;;;;;;0.90;0.90;;;11.20;41.50;;;;;;10279292;28;20238;-77
2021/12/01 22:24:43;;;;;;;0.90;0.90;;;11.10;41.50;;;;;;10285067;28;20322;-77
2021/12/01 22:29:48;;;;;;;0.87;0.87;;;11.10;41.50;;;;;;10289718;28;20785;-77
2021/12/01 22:35:00;;;;;;;0.80;0.80;;;11.00;41.50;;;;;;10283802;28;20740;-77
2021/12/01 22:40:06;;;;;;;0.90;0.90;;;11.00;41.80;;;;;;10283556;28;20236;-77
2021/12/01 22:45:10;;;;;;;0.80;0.80;;;10.90;41.90;;;;;;10281470;28;20651;-77
2021/12/01 22:50:17;;;;;;;0.97;0.90;;;10.90;42.00;;;;;;10278254;28;20238;-77
2021/12/01 22:55:21;;;;;;;0.90;0.90;;;10.90;42.00;;;;;;10282963;28;20243;-77
2021/12/01 23:00:44;;;;;;;0.90;0.90;;;10.70;41.80;;;;;;10283000;28;20705;-77
2021/12/01 23:05:50;;;;;;;0.90;0.90;;;10.90;41.60;;;;;;10283495;28;20800;-77
2021/12/01 23:10:56;;;;;;;1.20;1.10;;;10.90;41.50;;;;;;10283089;28;20254;-77
2021/12/01 23:16:00;;;;;;;1.00;1.00;;;10.90;41.60;;;;;;10281597;28;20298;-78
2021/12/01 23:21:05;;;;;;;0.80;0.80;;;10.90;41.50;;;;;;10282411;28;20236;-77
2021/12/01 23:31:32;;;;;;;0.80;0.80;;;10.90;41.20;;;;;;10281406;28;20232;-77
2021/12/01 23:36:38;;;;;;;0.90;0.70;;;10.90;40.90;;;;;;10281531;28;20314;-77
2021/12/01 23:41:42;;;;;;;0.80;0.80;;;10.90;40.70;;;;;;10282323;28;20235;-77
2021/12/01 23:52:14;;;;;;;0.70;0.70;;;10.80;41.20;;;;;;10280011;28;21274;-77
2021/12/01 23:57:17;;;;;;;0.70;0.70;;;10.80;41.00;;;;;;10282621;28;20227;-77
